Time;durP1;ratioP1;P1;durP2;ratioP2;P2;SDS_P1;SDS_P2;PMS_P1;PMS_P2;Temp;Humidity;BMP_temperature;BMP_pressure;BME280_temperature;BME280_humidity;BME280_pressure;Samples;Min_cycle;Max_cycle;Signal;HPM_P1;HPM_P2
2021/10/20 00:02:13;;;;;;;4.18;2.20;;;;;;;21.61;23.38;101633.31;5126941;28;20056;-52
2021/10/20 00:04:41;;;;;;;2.30;1.75;;;;;;;21.75;23.39;101651.38;5123149;28;20055;-49
2021/10/20 00:07:09;;;;;;;3.08;2.08;;;;;;;21.71;23.26;101647.13;5119673;28;20058;-49
2021/10/20 00:09:37;;;;;;;2.55;1.80;;;;;;;21.73;23.22;101640.66;5127613;27;20066;-51
2021/10/20 00:12:07;;;;;;;3.40;1.90;;;;;;;21.74;23.37;101638.81;5134413;27;20047;-51
2021/10/20 00:14:35;;;;;;;3.45;2.28;;;;;;;21.72;23.24;101629.91;5129596;27;20515;-50
2021/10/20 00:17:03;;;;;;;4.20;2.20;;;;;;;21.73;23.16;101619.00;5133516;27;20047;-49
2021/10/20 00:19:30;;;;;;;3.13;2.20;;;;;;;21.71;23.11;101618.22;5115582;28;20064;-49
2021/10/20 00:21:58;;;;;;;3.90;1.95;;;;;;;21.72;23.26;101609.09;5132416;27;20050;-53
2021/10/20 00:24:26;;;;;;;2.42;1.60;;;;;;;21.72;23.16;101606.41;5132842;27;20051;-51
2021/10/20 00:26:54;;;;;;;4.68;2.08;;;;;;;21.72;23.15;101595.56;5134598;27;20486;-48
2021/10/20 00:29:23;;;;;;;3.85;2.47;;;;;;;21.73;23.23;101601.84;5118288;27;20067;-49
2021/10/20 00:31:51;;;;;;;4.63;2.00;;;;;;;21.72;23.22;101597.41;5135866;27;20055;-47
2021/10/20 00:34:18;;;;;;;3.50;1.80;;;;;;;21.72;23.09;101592.00;5135393;27;20062;-51
2021/10/20 00:36:46;;;;;;;3.33;1.77;;;;;;;21.72;23.19;101590.16;5128321;27;20058;-49
2021/10/20 00:39:14;;;;;;;3.00;2.13;;;;;;;21.60;23.16;101567.44;5128106;27;20062;-52
2021/10/20 00:41:42;;;;;;;2.70;2.03;;;;;;;21.72;23.13;101579.31;5134910;27;20074;-52
2021/10/20 00:44:10;;;;;;;2.95;2.13;;;;;;;21.72;23.10;101573.03;5132588;27;20051;-47
2021/10/20 00:46:39;;;;;;;2.75;1.73;;;;;;;21.68;23.10;101570.53;5115533;28;20056;-52
2021/10/20 00:49:07;;;;;;;3.42;1.85;;;;;;;21.72;23.01;101568.47;5121437;27;20062;-47
2021/10/20 00:51:34;;;;;;;3.42;2.08;;;;;;;21.70;23.09;101547.91;5125746;27;20051;-50
2021/10/20 00:54:02;;;;;;;4.53;2.13;;;;;;;21.70;22.98;101556.03;5124425;27;20060;-48
2021/10/20 00:56:30;;;;;;;3.88;2.22;;;;;;;21.70;23.07;101545.19;5134283;27;20051;-48
2021/10/20 00:58:58;;;;;;;2.50;1.70;;;;;;;21.66;23.12;101529.16;5117273;27;20062;-47
2021/10/20 01:01:26;;;;;;;3.72;2.08;;;;;;;21.71;23.04;101531.56;5121787;27;20055;-48
2021/10/20 01:03:55;;;;;;;2.75;1.90;;;;;;;21.71;22.98;101519.84;5125043;27;20055;-48
2021/10/20 01:06:23;;;;;;;2.92;1.55;;;;;;;21.70;22.96;101510.88;5130285;27;20055;-50
2021/10/20 01:08:51;;;;;;;4.38;2.72;;;;;;;21.71;22.97;101509.03;5129725;27;20064;-51
2021/10/20 01:11:19;;;;;;;4.80;2.28;;;;;;;21.66;22.84;101491.25;5129662;27;20427;-51
2021/10/20 01:13:47;;;;;;;2.30;1.63;;;;;;;21.67;22.99;101490.25;5124399;27;20047;-49
2021/10/20 01:16:16;;;;;;;3.00;1.58;;;;;;;21.68;22.92;101489.28;5117249;27;20051;-49
2021/10/20 01:18:44;;;;;;;2.90;1.80;;;;;;;21.70;23.06;101485.63;5127370;27;20372;-47
2021/10/20 01:21:17;;;;;;;3.08;1.80;;;;;;;21.64;22.64;101490.47;5126496;27;20056;-52
2021/10/20 01:23:45;;;;;;;3.10;1.88;;;;;;;21.70;22.90;101488.34;5126754;27;20064;-49
2021/10/20 01:26:13;;;;;;;3.35;1.55;;;;;;;21.67;22.85;101487.56;5129737;27;20047;-51
2021/10/20 01:28:41;;;;;;;3.60;2.05;;;;;;;21.67;22.84;101484.84;5133997;27;20055;-48
2021/10/20 01:31:09;;;;;;;4.25;2.05;;;;;;;21.68;22.94;101485.72;5133289;27;20062;-48
2021/10/20 01:33:37;;;;;;;3.30;1.90;;;;;;;21.68;22.89;101475.75;5133876;27;20051;-50
2021/10/20 01:36:05;;;;;;;2.90;2.15;;;;;;;21.70;22.92;101474.78;5126885;27;20062;-50
2021/10/20 01:38:34;;;;;;;3.72;2.08;;;;;;;21.70;22.89;101470.25;5128389;27;20051;-52
2021/10/20 01:41:02;;;;;;;3.13;1.98;;;;;;;21.68;22.96;101466.75;5121595;27;20056;-49
2021/10/20 01:43:34;;;;;;;3.83;1.65;;;;;;;21.67;22.67;101465.91;5114040;27;20063;-49
2021/10/20 01:46:02;;;;;;;2.60;1.85;;;;;;;21.68;22.87;101455.94;5113489;27;20074;-46
2021/10/20 01:48:30;;;;;;;2.58;1.58;;;;;;;21.67;22.93;101454.19;5122309;27;20412;-50
2021/10/20 01:50:57;;;;;;;3.85;2.25;;;;;;;21.67;22.81;101437.94;5131083;27;20055;-50
2021/10/20 01:53:25;;;;;;;2.17;1.52;;;;;;;21.67;22.92;101435.25;5128765;27;20054;-49
2021/10/20 01:55:54;;;;;;;2.92;1.60;;;;;;;21.66;23.20;101433.53;5119219;27;20063;-47
2021/10/20 01:58:24;;;;;;;3.38;2.30;;;;;;;21.67;22.80;101436.09;5125193;27;20063;-51
2021/10/20 02:00:52;;;;;;;2.53;1.95;;;;;;;21.66;22.72;101428.97;5113195;27;20056;-47
2021/10/20 02:03:20;;;;;;;3.60;2.30;;;;;;;21.65;22.91;101439.88;5131544;27;20530;-48
2021/10/20 02:05:48;;;;;;;3.15;1.80;;;;;;;21.66;22.91;101439.81;5131744;27;20055;-51
2021/10/20 02:08:16;;;;;;;3.67;2.13;;;;;;;21.67;22.81;101437.94;5133748;27;20051;-50
2021/10/20 02:10:43;;;;;;;2.88;1.90;;;;;;;21.67;22.90;101427.13;5128845;27;20062;-50
2021/10/20 02:13:12;;;;;;;3.53;1.85;;;;;;;21.67;22.66;101440.66;5129194;27;20051;-48
2021/10/20 02:15:40;;;;;;;2.75;2.20;;;;;;;21.64;22.93;101428.19;5120355;27;20046;-51
2021/10/20 02:18:08;;;;;;;2.30;1.63;;;;;;;21.66;22.90;101428.97;5113459;27;20361;-49
2021/10/20 02:20:36;;;;;;;2.63;1.80;;;;;;;21.65;22.90;101427.22;5112553;28;20055;-51
2021/10/20 02:23:04;;;;;;;2.38;1.65;;;;;;;20.80;22.97;101276.84;5123701;27;20055;-50
2021/10/20 02:25:31;;;;;;;3.90;2.17;;;;;;;21.63;22.84;101414.78;5125656;27;20062;-48
2021/10/20 02:27:59;;;;;;;3.88;1.80;;;;;;;21.65;22.80;101419.09;5112193;28;20148;-48
2021/10/20 02:30:29;;;;;;;2.67;1.90;;;;;;;21.65;22.93;101407.38;5118633;27;20499;-49
2021/10/20 02:32:58;;;;;;;4.68;2.38;;;;;;;21.66;22.66;101407.31;5125886;27;20070;-49
2021/10/20 02:35:25;;;;;;;2.30;1.73;;;;;;;21.65;23.00;101385.72;5125902;27;20047;-47
2021/10/20 02:37:53;;;;;;;3.67;1.98;;;;;;;21.65;22.83;101377.59;5116280;27;20067;-46
2021/10/20 02:40:21;;;;;;;3.45;1.92;;;;;;;21.65;22.83;101380.31;5120809;27;20507;-50
2021/10/20 02:42:48;;;;;;;3.78;2.08;;;;;;;21.63;22.77;101382.28;5115461;27;20538;-51
2021/10/20 02:45:16;;;;;;;2.80;1.92;;;;;;;21.63;22.64;101376.88;5113990;27;20051;-47
2021/10/20 02:47:45;;;;;;;4.07;1.88;;;;;;;21.64;22.78;101381.28;5117267;27;20063;-46
2021/10/20 02:50:13;;;;;;;2.53;1.77;;;;;;;21.62;22.88;101361.56;5131440;27;20066;-49
2021/10/20 02:52:41;;;;;;;3.40;1.60;;;;;;;21.63;22.67;101363.31;5123503;27;20063;-48
2021/10/20 02:55:09;;;;;;;3.63;2.13;;;;;;;21.62;22.85;101359.75;5116905;27;20070;-46
2021/10/20 02:57:37;;;;;;;2.60;1.85;;;;;;;21.51;22.71;101337.06;5111710;28;20056;-46
2021/10/20 03:00:06;;;;;;;3.85;2.17;;;;;;;21.62;22.88;101357.06;5112432;27;20051;-46
2021/10/20 03:02:34;;;;;;;2.85;1.80;;;;;;;21.63;22.98;101355.22;5130560;27;20051;-46
2021/10/20 03:05:03;;;;;;;2.58;1.45;;;;;;;21.63;22.84;101349.78;5120947;27;20039;-48
2021/10/20 03:07:32;;;;;;;3.90;2.10;;;;;;;21.62;22.67;101332.69;5116038;27;20055;-46
2021/10/20 03:10:01;;;;;;;4.10;2.13;;;;;;;21.62;22.79;101335.38;5124294;27;20055;-47
2021/10/20 03:12:30;;;;;;;2.88;1.80;;;;;;;21.63;22.82;101325.41;5111652;28;20051;-46
2021/10/20 03:14:58;;;;;;;2.15;1.55;;;;;;;21.63;22.75;101325.41;5131474;27;20047;-46
2021/10/20 03:17:26;;;;;;;2.67;1.45;;;;;;;21.62;22.83;101315.53;5126360;27;20066;-51
2021/10/20 03:19:54;;;;;;;2.95;1.98;;;;;;;21.59;22.86;101304.94;5132136;27;20062;-46
2021/10/20 03:22:23;;;;;;;3.78;1.75;;;;;;;21.62;22.85;101310.13;5135910;27;20055;-46
2021/10/20 03:24:51;;;;;;;3.92;1.92;;;;;;;21.62;22.83;101304.72;5129778;27;20062;-51
2021/10/20 03:27:19;;;;;;;2.63;1.50;;;;;;;21.60;22.75;101283.19;5114520;27;20070;-47
2021/10/20 03:29:47;;;;;;;2.60;1.58;;;;;;;21.60;22.80;101285.03;5128248;27;20061;-46
2021/10/20 03:32:14;;;;;;;4.00;3.05;;;;;;;21.60;22.74;101279.59;5120715;27;20051;-52
2021/10/20 03:34:42;;;;;;;2.35;2.03;;;;;;;21.62;22.86;101272.22;5118189;27;20039;-51
2021/10/20 03:37:11;;;;;;;2.72;1.63;;;;;;;21.61;22.83;101255.13;5119473;27;20388;-49
2021/10/20 03:39:41;;;;;;;2.97;1.67;;;;;;;21.62;22.93;101258.69;5130787;27;20047;-48
2021/10/20 03:42:11;;;;;;;3.33;2.03;;;;;;;21.60;22.95;101250.69;5130386;27;20070;-49
2021/10/20 03:44:39;;;;;;;3.17;1.70;;;;;;;21.60;22.71;101250.69;5120829;27;20062;-45
2021/10/20 03:47:06;;;;;;;3.25;1.95;;;;;;;21.59;22.76;101232.72;5124841;27;20426;-46
2021/10/20 03:49:34;;;;;;;3.00;1.80;;;;;;;21.62;22.72;101226.19;5120564;28;20525;-46
2021/10/20 03:52:02;;;;;;;3.38;1.83;;;;;;;21.60;22.88;101225.47;5115364;28;20077;-45
2021/10/20 03:54:30;;;;;;;3.08;2.08;;;;;;;21.58;22.82;101216.56;5120651;28;20058;-46
2021/10/20 03:57:01;;;;;;;3.28;2.05;;;;;;;21.60;22.53;101204.66;5131154;28;20043;-46
2021/10/20 03:59:29;;;;;;;3.47;3.05;;;;;;;21.59;22.76;101193.97;5130875;27;20414;-46
2021/10/20 04:01:59;;;;;;;3.22;2.17;;;;;;;21.60;22.83;101196.53;5123233;27;20062;-48
2021/10/20 04:04:26;;;;;;;3.55;1.77;;;;;;;21.60;22.82;101192.97;5120215;28;20058;-46
2021/10/20 04:06:56;;;;;;;2.80;1.50;;;;;;;21.58;22.66;101178.66;5124443;28;20070;-46
2021/10/20 04:09:24;;;;;;;2.38;1.70;;;;;;;21.58;22.77;101175.97;5122747;28;20066;-46
2021/10/20 04:11:53;;;;;;;3.03;1.50;;;;;;;21.58;22.77;101167.84;5117578;28;20051;-48
2021/10/20 04:14:22;;;;;;;2.38;1.40;;;;;;;21.60;22.73;101171.31;5124787;28;20109;-45
2021/10/20 04:16:50;;;;;;;2.88;1.55;;;;;;;21.59;22.68;101161.47;5107247;28;20052;-48
2021/10/20 04:19:18;;;;;;;3.70;1.60;;;;;;;21.55;22.80;101144.59;5112736;28;20047;-49
2021/10/20 04:21:46;;;;;;;2.25;1.50;;;;;;;21.57;22.67;101134.50;5118166;28;20047;-50
2021/10/20 04:24:13;;;;;;;2.35;1.40;;;;;;;21.60;22.72;101138.81;5118979;28;20063;-46
2021/10/20 04:26:41;;;;;;;3.08;1.77;;;;;;;21.40;22.81;101094.22;5124583;28;20054;-48
2021/10/20 04:29:09;;;;;;;4.95;2.03;;;;;;;21.59;22.63;101126.28;5116562;28;20429;-46
2021/10/20 04:31:38;;;;;;;2.53;1.42;;;;;;;21.57;22.61;101120.97;5125605;28;20506;-49
2021/10/20 04:34:06;;;;;;;2.58;1.40;;;;;;;21.49;22.74;101115.22;5119964;27;20047;-47
2021/10/20 04:36:34;;;;;;;2.75;1.33;;;;;;;21.59;22.67;101128.97;5117748;28;20130;-47
2021/10/20 04:39:02;;;;;;;1.98;1.13;;;;;;;21.58;22.69;101119.97;5125114;28;20494;-50
2021/10/20 04:41:30;;;;;;;2.00;1.60;;;;;;;21.59;22.59;101099.22;5122247;28;20039;-47
2021/10/20 04:43:58;;;;;;;2.58;1.52;;;;;;;21.58;22.72;101084.78;5114204;28;20083;-49
2021/10/20 04:46:26;;;;;;;1.95;1.15;;;;;;;21.57;22.62;101084.91;5125285;28;20050;-48
2021/10/20 04:48:56;;;;;;;1.88;1.20;;;;;;;21.48;22.57;101059.38;5129539;28;20054;-47
2021/10/20 04:51:24;;;;;;;2.85;1.20;;;;;;;21.58;22.53;101064.97;5125667;28;20047;-47
2021/10/20 04:53:51;;;;;;;2.00;1.42;;;;;;;21.57;22.45;101069.53;5120153;28;21288;-51
2021/10/20 04:56:19;;;;;;;3.78;1.40;;;;;;;21.56;22.69;101059.69;5124945;27;20054;-52
2021/10/20 04:58:46;;;;;;;3.45;1.92;;;;;;;21.56;22.66;101051.56;5133904;27;20043;-47
2021/10/20 05:01:14;;;;;;;2.10;1.30;;;;;;;21.55;22.58;101035.41;5134290;27;20051;-49
2021/10/20 05:03:42;;;;;;;1.25;0.98;;;;;;;21.56;22.73;101026.34;5128509;27;20066;-50
2021/10/20 05:06:11;;;;;;;2.05;1.30;;;;;;;21.56;22.66;101012.78;5133240;27;20047;-48
2021/10/20 05:08:39;;;;;;;2.58;1.30;;;;;;;21.56;22.73;101004.69;5127985;27;20058;-47
2021/10/20 05:11:06;;;;;;;3.72;1.70;;;;;;;21.54;22.66;101003.91;5132177;27;20047;-47
2021/10/20 05:13:34;;;;;;;1.85;1.20;;;;;;;21.55;22.54;100997.50;5132685;27;20047;-47
2021/10/20 05:16:02;;;;;;;2.83;1.40;;;;;;;21.55;22.39;100984.88;5126533;27;20055;-47
2021/10/20 05:18:30;;;;;;;2.15;1.20;;;;;;;21.54;22.54;100983.13;5122891;27;20055;-48
2021/10/20 05:20:59;;;;;;;2.72;1.40;;;;;;;21.54;22.56;100977.69;5120973;27;20055;-51
2021/10/20 05:23:28;;;;;;;2.05;1.50;;;;;;;21.55;22.49;100956.91;5129797;27;20050;-49
2021/10/20 05:25:56;;;;;;;2.22;1.10;;;;;;;21.55;22.66;100949.69;5127918;27;20051;-54
2021/10/20 05:28:24;;;;;;;2.05;1.30;;;;;;;21.54;22.54;100950.63;5126298;27;20046;-51
2021/10/20 05:30:51;;;;;;;1.98;1.33;;;;;;;21.55;22.61;100946.09;5126718;27;20601;-47
2021/10/20 05:33:19;;;;;;;1.85;1.17;;;;;;;21.50;22.57;100918.50;5127994;27;20066;-49
2021/10/20 05:35:47;;;;;;;2.72;1.17;;;;;;;21.54;22.64;100925.41;5121998;27;20054;-49
2021/10/20 05:38:16;;;;;;;2.67;1.38;;;;;;;21.54;22.49;100925.41;5126762;27;20062;-51
2021/10/20 05:40:46;;;;;;;2.47;1.65;;;;;;;21.53;22.54;100927.25;5128041;27;20073;-48
2021/10/20 05:43:14;;;;;;;1.95;1.17;;;;;;;21.54;22.66;100933.53;5125873;27;20051;-49
2021/10/20 05:45:42;;;;;;;3.00;1.10;;;;;;;21.55;22.64;100924.44;5127313;27;20048;-51
2021/10/20 05:48:10;;;;;;;2.17;1.40;;;;;;;21.55;22.53;100908.19;5126825;27;20047;-51
2021/10/20 05:50:38;;;;;;;2.42;1.33;;;;;;;21.54;22.63;100890.22;5128270;27;20047;-51
2021/10/20 05:53:07;;;;;;;2.10;1.42;;;;;;;21.53;22.56;100888.50;5131036;27;20051;-47
2021/10/20 05:55:36;;;;;;;1.85;1.27;;;;;;;21.51;22.45;100871.50;5127864;27;20047;-47
2021/10/20 05:58:06;;;;;;;1.23;0.82;;;;;;;21.54;22.66;100869.44;5123099;27;20525;-49
2021/10/20 06:00:36;;;;;;;1.73;1.15;;;;;;;21.54;22.51;100868.56;5125587;27;20066;-50
2021/10/20 06:03:04;;;;;;;1.77;0.93;;;;;;;21.53;22.71;100856.03;5125296;27;20509;-51
2021/10/20 06:05:32;;;;;;;1.83;1.33;;;;;;;21.53;22.58;100854.19;5125278;27;20047;-48
2021/10/20 06:08:01;;;;;;;3.58;1.17;;;;;;;21.54;23.28;100852.34;5121658;27;20043;-50
2021/10/20 06:10:29;;;;;;;2.83;1.30;;;;;;;21.54;23.04;100842.38;5126412;27;20055;-49
2021/10/20 06:12:57;;;;;;;2.88;1.02;;;;;;;21.54;23.76;100836.09;5127000;27;20055;-53
2021/10/20 06:15:28;;;;;;;2.65;1.30;;;;;;;21.53;23.21;100835.22;5122683;27;20058;-55
2021/10/20 06:17:58;;;;;;;3.00;1.35;;;;;;;21.49;22.86;100825.63;5119290;27;20062;-55
2021/10/20 06:20:27;;;;;;;2.22;0.90;;;;;;;21.49;22.85;100820.22;5119441;27;20051;-51
2021/10/20 06:22:55;;;;;;;2.65;1.00;;;;;;;21.50;22.78;100815.66;5120881;27;20070;-53
2021/10/20 06:25:24;;;;;;;1.88;1.10;;;;;;;21.48;22.90;100820.31;5126240;27;20050;-53
2021/10/20 06:27:52;;;;;;;2.05;1.10;;;;;;;21.50;22.90;100807.53;5123401;27;20050;-56
2021/10/20 06:30:19;;;;;;;1.70;1.05;;;;;;;21.50;22.86;100800.28;5117738;27;20051;-51
2021/10/20 06:32:49;;;;;;;2.78;1.52;;;;;;;21.48;22.86;100798.66;5116809;27;20055;-53
2021/10/20 06:35:16;;;;;;;1.70;0.98;;;;;;;21.51;22.70;100790.31;5117188;27;20054;-55
2021/10/20 06:37:46;;;;;;;2.50;1.10;;;;;;;21.52;22.90;100783.94;5113853;27;20059;-54
2021/10/20 06:40:14;;;;;;;3.05;0.80;;;;;;;20.92;22.91;100677.56;5119139;27;20503;-51
2021/10/20 06:42:42;;;;;;;2.88;0.80;;;;;;;21.52;22.76;100763.13;5117458;27;20388;-53
2021/10/20 06:45:10;;;;;;;2.95;1.45;;;;;;;21.50;22.99;100756.97;5119606;27;20051;-51
2021/10/20 06:47:38;;;;;;;3.53;1.30;;;;;;;21.47;22.86;100751.78;5117627;27;20491;-52
2021/10/20 06:50:10;;;;;;;2.08;1.60;;;;;;;21.50;22.83;100745.28;5118215;27;20137;-51
2021/10/20 06:52:38;;;;;;;1.65;1.00;;;;;;;21.40;22.79;100721.63;5117383;27;20114;-52
2021/10/20 06:55:07;;;;;;;2.42;1.02;;;;;;;21.49;22.74;100733.59;5113784;27;20055;-52
2021/10/20 06:57:34;;;;;;;1.30;0.70;;;;;;;21.51;22.76;100730.75;5117091;27;20059;-51
2021/10/20 07:00:03;;;;;;;2.03;0.85;;;;;;;21.47;22.76;100711.19;5111237;27;20059;-51
2021/10/20 07:02:31;;;;;;;2.35;0.82;;;;;;;21.50;22.64;100708.25;5111156;27;20046;-53
2021/10/20 07:04:59;;;;;;;1.10;0.80;;;;;;;21.51;22.74;100706.41;5116132;27;20043;-51
2021/10/20 07:07:29;;;;;;;2.08;0.77;;;;;;;21.50;22.77;100693.88;5115761;27;20510;-54
2021/10/20 07:09:57;;;;;;;1.55;0.80;;;;;;;21.51;22.83;100690.16;5115689;27;20047;-52
2021/10/20 07:12:25;;;;;;;1.05;0.70;;;;;;;21.48;22.86;100679.56;5116589;27;20051;-52
2021/10/20 07:14:52;;;;;;;1.45;1.00;;;;;;;21.49;22.85;100668.66;5118907;27;20054;-51
2021/10/20 07:17:21;;;;;;;2.05;0.95;;;;;;;21.46;22.69;100660.78;5114135;27;20055;-51
2021/10/20 07:19:48;;;;;;;1.77;1.17;;;;;;;21.48;22.97;100658.81;5115347;27;20050;-53
2021/10/20 07:22:17;;;;;;;2.58;1.30;;;;;;;21.49;23.17;100647.00;5117578;27;20055;-50
2021/10/20 07:24:46;;;;;;;2.38;1.00;;;;;;;21.46;23.38;100635.56;5118135;27;20423;-55
2021/10/20 07:27:14;;;;;;;2.45;0.90;;;;;;;21.49;23.43;100627.19;5113282;27;20118;-54
2021/10/20 07:29:46;;;;;;;1.92;1.15;;;;;;;21.47;23.42;100615.63;5110408;27;20050;-52
2021/10/20 07:32:14;;;;;;;1.20;0.90;;;;;;;21.50;23.61;100596.44;5111026;27;20058;-52
2021/10/20 07:34:41;;;;;;;2.08;1.00;;;;;;;21.49;23.54;100594.72;5115251;27;20050;-54
2021/10/20 07:37:09;;;;;;;2.08;0.90;;;;;;;21.49;23.72;100583.91;5105568;27;20058;-55
2021/10/20 07:39:37;;;;;;;2.17;0.70;;;;;;;21.50;23.78;100575.63;5109857;27;20051;-50
2021/10/20 07:42:07;;;;;;;2.17;0.98;;;;;;;21.49;23.75;100564.94;5105985;27;20740;-54
2021/10/20 07:44:35;;;;;;;1.92;0.70;;;;;;;21.49;23.77;100556.84;5111953;27;20043;-54
2021/10/20 07:47:05;;;;;;;1.80;0.70;;;;;;;21.50;23.90;100556.69;5106776;27;20043;-54
2021/10/20 07:49:34;;;;;;;1.20;0.57;;;;;;;21.52;23.86;100540.34;5131164;27;20514;-51
2021/10/20 07:52:02;;;;;;;2.67;0.90;;;;;;;21.52;23.96;100530.38;5103834;27;20059;-54
2021/10/20 07:54:30;;;;;;;2.08;1.00;;;;;;;21.50;23.90;100523.34;5103022;28;20530;-52
2021/10/20 07:56:59;;;;;;;1.33;0.80;;;;;;;21.52;23.95;100524.97;5105323;27;20059;-53
2021/10/20 07:59:29;;;;;;;2.25;0.95;;;;;;;21.51;23.93;100519.66;5099906;27;20062;-50
2021/10/20 08:01:57;;;;;;;0.98;0.52;;;;;;;21.52;23.96;100510.56;5102877;27;20059;-54
2021/10/20 08:04:26;;;;;;;1.83;0.70;;;;;;;21.31;24.12;100469.84;5103990;27;20116;-58
2021/10/20 08:06:53;;;;;;;1.52;0.70;;;;;;;21.49;24.19;100492.72;5096952;28;20051;-52
2021/10/20 08:09:21;;;;;;;2.20;0.80;;;;;;;21.53;24.06;100482.53;5098047;27;20538;-57
2021/10/20 08:11:49;;;;;;;1.88;0.77;;;;;;;21.52;24.10;100461.88;5100914;28;20074;-54
2021/10/20 08:14:18;;;;;;;1.13;0.70;;;;;;;21.48;24.12;100434.19;5101701;28;20986;-51
2021/10/20 08:16:47;;;;;;;4.50;0.90;;;;;;;21.52;24.11;100424.81;5100708;28;20093;-50
2021/10/20 08:19:15;;;;;;;1.73;1.08;;;;;;;21.54;24.12;100417.41;5106937;28;20051;-50
2021/10/20 08:21:45;;;;;;;4.47;1.08;;;;;;;21.54;24.09;100398.47;5107179;28;20063;-50
2021/10/20 08:24:13;;;;;;;0.90;0.70;;;;;;;21.55;24.15;100389.41;5105676;27;20055;-52
2021/10/20 08:26:41;;;;;;;1.52;0.60;;;;;;;21.58;24.56;100372.00;5109252;27;20550;-55
2021/10/20 08:29:10;;;;;;;3.00;0.70;;;;;;;21.60;24.61;100367.34;5105531;27;20055;-55
2021/10/20 08:31:38;;;;;;;2.25;0.70;;;;;;;21.65;24.78;100360.53;5102491;27;20059;-55
2021/10/20 08:34:08;;;;;;;2.00;0.85;;;;;;;21.67;25.09;100338.78;5101387;27;20062;-54
2021/10/20 08:36:36;;;;;;;1.23;0.50;;;;;;;21.68;25.34;100316.97;5105264;27;20423;-53
2021/10/20 08:39:04;;;;;;;0.75;0.68;;;;;;;21.72;25.59;100295.91;5110774;27;20051;-56
2021/10/20 08:41:32;;;;;;;1.40;0.70;;;;;;;21.74;25.66;100258.75;5104889;27;20047;-54
2021/10/20 08:43:59;;;;;;;1.48;0.70;;;;;;;21.76;25.71;100243.25;5102569;27;20047;-54
2021/10/20 08:46:28;;;;;;;0.98;0.70;;;;;;;21.78;25.88;100230.41;5106878;27;20058;-55
2021/10/20 08:49:00;;;;;;;1.80;0.80;;;;;;;21.67;25.83;100198.00;5107715;27;20055;-54
2021/10/20 08:51:30;;;;;;;0.95;0.57;;;;;;;21.78;25.74;100206.03;5111069;27;20048;-50
2021/10/20 08:53:59;;;;;;;1.73;0.85;;;;;;;21.75;26.03;100181.94;5110001;27;20051;-49
2021/10/20 08:56:26;;;;;;;2.42;0.90;;;;;;;21.84;26.06;100196.53;5106431;27;20047;-47
2021/10/20 08:58:54;;;;;;;2.25;0.70;;;;;;;21.84;26.10;100186.56;5108839;27;20066;-43
2021/10/20 09:01:22;;;;;;;3.25;0.70;;;;;;;21.85;26.26;100188.28;5107805;27;20435;-44
2021/10/20 09:03:51;;;;;;;3.03;0.70;;;;;;;21.90;26.65;100182.44;5110702;27;20062;-42
2021/10/20 09:06:19;;;;;;;1.17;0.50;;;;;;;21.89;26.53;100159.94;5106948;27;20047;-44
2021/10/20 09:08:49;;;;;;;1.88;0.85;;;;;;;21.93;26.68;100160.50;5087457;27;20050;-46
2021/10/20 09:14:04;;;;;;;0.68;0.60;;;;;;;21.98;26.85;100163.69;5122410;27;20058;-45
2021/10/20 09:16:34;;;;;;;3.17;1.05;;;;;;;21.97;26.96;100134.88;5102586;27;20043;-41
2021/10/20 09:19:11;;;;;;;1.65;0.63;;;;;;;21.99;26.94;100119.34;5106852;27;20059;-49
2021/10/20 09:21:47;;;;;;;2.20;1.00;;;;;;;22.00;27.08;100120.19;5095610;27;20066;-52
2021/10/20 09:24:17;;;;;;;2.15;0.70;;;;;;;22.02;27.14;100100.13;5091797;27;20064;-55
2021/10/20 09:26:45;;;;;;;1.52;0.55;;;;;;;22.05;27.29;100083.59;5098464;27;20043;-55
2021/10/20 09:29:22;;;;;;;1.60;0.90;;;;;;;22.06;27.02;100079.88;5103271;27;20059;-52
2021/10/20 09:31:50;;;;;;;2.08;0.90;;;;;;;22.06;27.23;100052.81;5100534;27;20891;-49
2021/10/20 09:34:20;;;;;;;1.55;0.80;;;;;;;22.09;27.78;100044.41;5103696;27;20067;-50
2021/10/20 09:36:48;;;;;;;2.15;0.90;;;;;;;22.07;27.17;100042.81;5102684;27;20658;-49
2021/10/20 09:39:17;;;;;;;1.58;0.80;;;;;;;22.09;27.34;100030.00;5107771;27;20058;-53
2021/10/20 09:41:45;;;;;;;1.67;0.80;;;;;;;22.13;27.37;100028.72;5105980;27;20054;-50
2021/10/20 09:44:14;;;;;;;4.53;0.65;;;;;;;22.15;27.34;100014.09;5105144;27;20675;-50
2021/10/20 09:46:43;;;;;;;2.70;1.17;;;;;;;22.15;27.33;100014.09;5102871;27;20055;-50
2021/10/20 09:49:17;;;;;;;2.58;0.98;;;;;;;22.19;27.26;100003.81;5109603;27;20059;-52
2021/10/20 09:51:46;;;;;;;4.35;0.90;;;;;;;22.18;27.23;100017.50;5107833;27;20051;-50
2021/10/20 09:54:23;;;;;;;1.95;0.70;;;;;;;22.20;27.34;100023.63;5109452;27;20047;-53
2021/10/20 09:56:55;;;;;;;2.03;0.85;;;;;;;22.13;27.26;100009.75;5104636;27;20066;-50
2021/10/20 09:59:24;;;;;;;3.85;0.80;;;;;;;22.17;27.39;99997.69;5100415;27;20055;-48
2021/10/20 10:01:52;;;;;;;1.85;1.10;;;;;;;22.18;27.46;99991.25;5101392;27;20771;-51
2021/10/20 10:04:20;;;;;;;1.55;0.68;;;;;;;22.19;27.22;100003.81;5101709;27;20055;-54
2021/10/20 10:06:48;;;;;;;2.15;0.73;;;;;;;22.19;27.29;100003.81;5100032;27;20055;-51
2021/10/20 10:09:16;;;;;;;1.95;1.02;;;;;;;22.18;27.69;99991.25;5096585;27;20082;-52
2021/10/20 10:11:50;;;;;;;2.75;0.68;;;;;;;22.28;27.36;99958.75;5105825;27;20047;-55
2021/10/20 10:14:21;;;;;;;3.72;0.93;;;;;;;22.52;28.16;99966.44;5102209;27;20051;-52
2021/10/20 10:16:51;;;;;;;2.55;0.90;;;;;;;22.59;27.48;99957.59;5106912;27;20650;-51
2021/10/20 10:19:20;;;;;;;2.75;0.93;;;;;;;22.65;27.76;99948.03;5096870;27;20067;-51
2021/10/20 10:21:48;;;;;;;1.20;0.73;;;;;;;22.68;27.61;99933.34;5102951;27;20066;-54
2021/10/20 10:24:17;;;;;;;2.17;0.70;;;;;;;22.68;27.60;99927.91;5100190;27;20067;-51
2021/10/20 10:27:04;;;;;;;2.20;0.90;;;;;;;22.66;27.58;99914.47;5101335;27;20718;-57
2021/10/20 10:29:33;;;;;;;3.25;0.85;;;;;;;22.61;27.43;99889.69;5111297;27;20114;-56
2021/10/20 10:32:07;;;;;;;2.88;1.25;;;;;;;22.59;28.11;99894.38;5105550;27;20399;-55
2021/10/20 10:34:36;;;;;;;3.35;0.90;;;;;;;22.54;28.34;99883.16;5104025;27;20069;-57
2021/10/20 10:37:09;;;;;;;1.13;0.77;;;;;;;22.51;28.40;99872.59;5094870;27;20442;-53
2021/10/20 10:39:37;;;;;;;1.40;0.70;;;;;;;22.50;28.35;99865.44;5092896;27;20066;-52
2021/10/20 10:42:10;;;;;;;2.03;0.75;;;;;;;22.47;28.49;99853.06;5087240;27;20061;-56
2021/10/20 10:44:46;;;;;;;1.38;0.82;;;;;;;22.37;28.49;99836.81;5065276;27;20090;-57
2021/10/20 10:47:19;;;;;;;;;;;;;;;22.47;28.38;99800.72;5093640;27;20066;-54
2021/10/20 10:49:53;;;;;;;2.00;0.70;;;;;;;22.38;28.62;99787.03;5089392;27;19934;-53
2021/10/20 10:52:28;;;;;;;0.98;0.60;;;;;;;22.25;28.63;99751.28;5087293;27;20538;-54
2021/10/20 10:54:57;;;;;;;;;;;;;;;22.41;28.45;99766.06;5096125;27;20063;-52
2021/10/20 10:57:37;;;;;;;1.90;0.82;;;;;;;22.36;28.54;99755.69;5095825;27;20063;-54
2021/10/20 11:00:11;;;;;;;4.63;1.10;;;;;;;22.33;28.66;99751.41;5095809;27;20058;-52
2021/10/20 11:02:43;;;;;;;1.15;0.70;;;;;;;22.29;28.65;99731.03;5090689;27;20561;-51
2021/10/20 11:05:12;;;;;;;2.17;0.80;;;;;;;22.27;29.15;99724.91;5096425;27;20054;-55
2021/10/20 11:07:43;;;;;;;2.22;0.90;;;;;;;22.25;29.05;99729.59;5093230;27;20039;-54
2021/10/20 11:10:11;;;;;;;1.65;0.80;;;;;;;22.24;29.13;99732.47;5100155;27;20051;-51
2021/10/20 11:12:40;;;;;;;2.22;0.77;;;;;;;22.22;29.05;99726.34;5100720;27;20047;-47
2021/10/20 11:15:11;;;;;;;1.25;0.73;;;;;;;22.20;29.09;99714.81;5108415;27;20063;-50
2021/10/20 11:17:39;;;;;;;2.60;0.90;;;;;;;22.17;29.18;99707.84;5103404;27;20039;-51
2021/10/20 11:20:08;;;;;;;1.95;0.70;;;;;;;22.15;29.00;99705.28;5104945;27;20416;-50
2021/10/20 11:22:36;;;;;;;2.05;1.05;;;;;;;22.18;28.87;99722.22;5104049;27;20093;-56
2021/10/20 11:25:06;;;;;;;1.63;0.80;;;;;;;22.19;28.93;99716.69;5106188;27;20047;-52
2021/10/20 11:27:34;;;;;;;1.83;0.88;;;;;;;22.21;29.01;99714.66;5101734;27;20090;-49
2021/10/20 11:30:04;;;;;;;2.10;0.77;;;;;;;22.22;29.15;99707.38;5107207;27;20054;-50
2021/10/20 11:32:32;;;;;;;2.03;1.10;;;;;;;22.22;29.16;99666.75;5102567;27;20059;-51
2021/10/20 11:35:00;;;;;;;0.73;0.50;;;;;;;22.22;29.38;99655.91;5094372;27;20643;-53
2021/10/20 11:37:28;;;;;;;3.45;1.23;;;;;;;22.22;29.26;99640.53;5097699;27;20046;-52